Time;durP1;ratioP1;P1;durP2;ratioP2;P2;SDS_P1;SDS_P2;PMS_P1;PMS_P2;Temp;Humidity;BMP_temperature;BMP_pressure;BME280_temperature;BME280_humidity;BME280_pressure;Samples;Min_cycle;Max_cycle;Signal;HPM_P1;HPM_P2
2022/08/25 04:32:00;;;;;;;;;6.75;6.00;;;;;-147.14;100.00;58812.66;5247324;23;9744;-65
2022/08/25 04:34:26;;;;;;;;;5.67;5.00;;;;;-147.14;100.00;58812.66;5026855;28;8849;-65
2022/08/25 04:36:51;;;;;;;;;6.67;6.67;;;;;-147.14;100.00;58812.66;5024075;28;8837;-66
2022/08/25 04:39:19;;;;;;;;;5.00;5.00;;;;;-147.14;100.00;58812.66;5026433;28;26047;-66
2022/08/25 04:41:45;;;;;;;;;6.50;5.50;;;;;-147.14;100.00;58812.66;5024215;28;8928;-66
2022/08/25 04:44:11;;;;;;;;;5.75;5.50;;;;;-147.14;100.00;58812.66;5026372;28;9841;-66
2022/08/25 04:46:36;;;;;;;;;7.00;7.00;;;;;-147.14;100.00;58812.66;5030994;28;25391;-67
2022/08/25 04:49:02;;;;;;;;;5.00;5.00;;;;;-147.14;100.00;58812.66;5026432;28;8842;-67
2022/08/25 04:51:31;;;;;;;;;5.00;5.00;;;;;-147.14;100.00;58812.66;5024195;28;8896;-67
2022/08/25 04:54:01;;;;;;;;;3.50;3.50;;;;;-147.14;100.00;58812.66;5034712;28;8811;-67
2022/08/25 04:56:27;;;;;;;;;7.00;6.75;;;;;-147.14;100.00;58812.66;5019546;28;8794;-66
2022/08/25 04:58:54;;;;;;;;;5.75;5.00;;;;;-147.14;100.00;58812.66;5023528;28;8815;-67
2022/08/25 05:01:22;;;;;;;;;4.00;4.00;;;;;-147.14;100.00;58812.66;5031630;28;8797;-67
2022/08/25 05:03:53;;;;;;;;;5.00;4.00;;;;;-147.14;100.00;58812.66;5020929;28;8814;-66
2022/08/25 05:06:18;;;;;;;;;6.25;6.25;;;;;-147.14;100.00;58812.66;5030043;28;9730;-67
2022/08/25 05:08:43;;;;;;;;;5.67;5.67;;;;;-147.14;100.00;58812.66;5019428;28;31163;-67
2022/08/25 05:11:12;;;;;;;;;8.00;7.67;;;;;-147.14;100.00;58812.66;5019239;28;8829;-66
2022/08/25 05:13:37;;;;;;;;;6.50;5.75;;;;;-147.14;100.00;58812.66;5017043;28;8798;-67
2022/08/25 05:16:05;;;;;;;;;4.67;4.67;;;;;-147.14;100.00;58812.66;5028267;28;13924;-66
2022/08/25 05:18:32;;;;;;;;;7.25;5.75;;;;;-147.14;100.00;58812.66;5034536;28;9813;-67
2022/08/25 05:21:05;;;;;;;;;6.25;6.00;;;;;-147.14;100.00;58812.66;5030345;28;8906;-67
2022/08/25 05:23:30;;;;;;;;;6.75;6.25;;;;;-147.14;100.00;58812.66;5035297;28;8800;-68
2022/08/25 05:26:04;;;;;;;;;6.67;6.00;;;;;-147.14;100.00;58812.66;5026755;28;32920;-66
2022/08/25 05:28:30;;;;;;;;;5.25;5.25;;;;;-147.14;100.00;58812.66;5018046;28;8821;-67
2022/08/25 05:31:00;;;;;;;;;7.67;7.67;;;;;-147.14;100.00;58812.66;5029935;28;8835;-65
2022/08/25 05:33:26;;;;;;;;;6.00;4.50;;;;;-147.14;100.00;58812.66;5024045;28;8921;-66
2022/08/25 05:35:51;;;;;;;;;6.00;6.00;;;;;-147.14;100.00;58812.66;5033686;28;8904;-66
2022/08/25 05:38:17;;;;;;;;;7.00;7.00;;;;;-147.14;100.00;58812.66;5023008;28;30880;-66
2022/08/25 05:40:42;;;;;;;;;5.33;5.33;;;;;-147.14;100.00;58812.66;5021678;28;32291;-66
2022/08/25 05:43:08;;;;;;;;;7.33;6.33;;;;;-147.14;100.00;58812.66;5027982;28;33046;-65
2022/08/25 05:45:34;;;;;;;;;6.00;5.00;;;;;-147.14;100.00;58812.66;5031129;28;8835;-66
2022/08/25 05:47:59;;;;;;;;;7.00;5.00;;;;;-147.14;100.00;58812.66;5024832;28;8834;-66
2022/08/25 05:50:25;;;;;;;;;6.33;6.00;;;;;-147.14;100.00;58812.66;5021739;28;8809;-65
2022/08/25 05:52:50;;;;;;;;;5.00;5.00;;;;;-147.14;100.00;58812.66;5016801;28;29980;-66
2022/08/25 05:55:16;;;;;;;;;7.00;7.00;;;;;-147.14;100.00;58812.66;5020058;28;27207;-66
2022/08/25 05:57:41;;;;;;;;;9.00;8.00;;;;;-147.14;100.00;58812.66;5015966;28;8864;-66
2022/08/25 06:00:07;;;;;;;;;7.00;7.00;;;;;-147.14;100.00;58812.66;5030433;28;10987;-66
2022/08/25 06:02:47;;;;;;;;;6.75;6.00;;;;;-147.14;100.00;58812.66;5023413;28;8830;-66
2022/08/25 06:05:19;;;;;;;;;7.50;6.50;;;;;-147.14;100.00;58812.66;5025321;28;9681;-67
2022/08/25 06:07:45;;;;;;;;;7.75;6.25;;;;;-147.14;100.00;58812.66;5022723;28;8876;-67
2022/08/25 06:10:12;;;;;;;;;10.00;7.25;;;;;-147.14;100.00;58812.66;5028593;28;8833;-67
2022/08/25 06:12:39;;;;;;;;;8.75;8.00;;;;;-147.14;100.00;58812.66;5023994;28;8807;-67
2022/08/25 06:15:05;;;;;;;;;8.25;7.00;;;;;-147.14;100.00;58812.66;5024599;28;8945;-67
2022/08/25 06:17:30;;;;;;;;;8.33;6.33;;;;;-147.14;100.00;58812.66;5022951;28;8860;-67
2022/08/25 06:19:56;;;;;;;;;7.67;7.00;;;;;-147.14;100.00;58812.66;5020768;28;8865;-67
2022/08/25 06:22:21;;;;;;;;;6.67;6.67;;;;;-147.14;100.00;58812.66;5021335;28;8878;-67
2022/08/25 06:24:47;;;;;;;;;8.33;7.00;;;;;-147.14;100.00;58812.66;5022602;28;8851;-67
2022/08/25 06:27:12;;;;;;;;;7.67;7.00;;;;;-147.14;100.00;58812.66;5027179;28;8823;-66
2022/08/25 06:29:38;;;;;;;;;9.00;7.67;;;;;-147.14;100.00;58812.66;5028745;28;8811;-66
2022/08/25 06:32:04;;;;;;;;;8.00;8.00;;;;;-147.14;100.00;58812.66;5026601;28;36377;-66
2022/08/25 06:34:29;;;;;;;;;11.25;8.25;;;;;-147.14;100.00;58812.66;5026071;28;8826;-67
2022/08/25 06:36:54;;;;;;;;;6.33;6.33;;;;;-147.14;100.00;58812.66;5022046;28;30925;-66
2022/08/25 06:39:21;;;;;;;;;8.00;8.00;;;;;-147.14;100.00;58812.66;5023411;28;32203;-65
2022/08/25 06:41:51;;;;;;;;;6.67;6.67;;;;;-147.14;100.00;58812.66;5025231;28;8891;-65
2022/08/25 06:44:16;;;;;;;;;11.00;11.00;;;;;-147.14;100.00;58812.66;5021982;28;8782;-66
2022/08/25 06:46:42;;;;;;;;;11.33;10.33;;;;;-147.14;100.00;58812.66;5022713;28;36875;-67
2022/08/25 06:49:07;;;;;;;;;10.00;8.67;;;;;-147.14;100.00;58812.66;5021469;28;8826;-67
2022/08/25 06:51:36;;;;;;;;;8.00;8.00;;;;;-147.14;100.00;58812.66;5025157;28;29217;-65
2022/08/25 06:54:03;;;;;;;;;8.25;8.25;;;;;-147.14;100.00;58812.66;5025472;28;8912;-66
2022/08/25 06:56:28;;;;;;;;;8.75;8.00;;;;;-147.14;100.00;58812.66;5029869;28;9793;-66
2022/08/25 06:58:54;;;;;;;;;10.67;9.67;;;;;-147.14;100.00;58812.66;5033716;28;8978;-65
2022/08/25 07:01:24;;;;;;;;;9.25;9.25;;;;;-147.14;100.00;58812.66;5031086;28;8824;-65
2022/08/25 07:03:50;;;;;;;;;9.50;9.50;;;;;-147.14;100.00;58812.66;5017989;28;8804;-65
2022/08/25 07:06:17;;;;;;;;;8.67;8.67;;;;;-147.14;100.00;58812.66;5020921;28;8819;-67
2022/08/25 07:08:43;;;;;;;;;10.50;9.25;;;;;-147.14;100.00;58812.66;5022762;28;8819;-66
2022/08/25 07:11:09;;;;;;;;;11.67;8.33;;;;;-147.14;100.00;58812.66;5018789;28;8826;-66
2022/08/25 07:13:36;;;;;;;;;10.00;8.50;;;;;-147.14;100.00;58812.66;5022318;28;9723;-66
2022/08/25 07:16:02;;;;;;;;;8.40;8.20;;;;;-147.14;100.00;58812.66;5029554;28;9763;-67
2022/08/25 07:18:28;;;;;;;;;7.50;7.00;;;;;-147.14;100.00;58812.66;5025103;28;8796;-66
2022/08/25 07:20:55;;;;;;;;;7.67;7.00;;;;;-147.14;100.00;58812.66;5026430;28;9712;-67
2022/08/25 07:23:21;;;;;;;;;12.50;9.50;;;;;-147.14;100.00;58812.66;5031535;28;8787;-66
2022/08/25 07:25:46;;;;;;;;;7.00;6.33;;;;;-147.14;100.00;58812.66;5024969;28;10141;-67
2022/08/25 07:28:13;;;;;;;;;11.00;9.67;;;;;-147.14;100.00;58812.66;5021447;28;8977;-67
2022/08/25 07:30:38;;;;;;;;;8.00;8.00;;;;;-147.14;100.00;58812.66;5029563;28;8835;-67
2022/08/25 07:33:04;;;;;;;;;6.33;6.33;;;;;-147.14;100.00;58812.66;5025307;28;8894;-67
2022/08/25 07:35:31;;;;;;;;;8.25;8.00;;;;;-147.14;100.00;58812.66;5023781;28;30024;-67
2022/08/25 07:37:57;;;;;;;;;8.25;8.25;;;;;-147.14;100.00;58812.66;5025136;28;8747;-67
2022/08/25 07:40:25;;;;;;;;;11.00;10.75;;;;;-147.14;100.00;58812.66;5019651;28;9835;-67
2022/08/25 07:42:52;;;;;;;;;6.00;6.00;;;;;-147.14;100.00;58812.66;5017569;28;8817;-67
2022/08/25 07:45:19;;;;;;;;;4.20;4.20;;;;;-147.14;100.00;58812.66;5031439;28;8803;-67
2022/08/25 07:47:44;;;;;;;;;7.00;6.00;;;;;-147.14;100.00;58812.66;5029249;28;8799;-67
2022/08/25 07:50:11;;;;;;;;;12.00;10.67;;;;;-147.14;100.00;58812.66;5023763;28;26469;-67
2022/08/25 07:52:38;;;;;;;;;7.75;7.75;;;;;-147.14;100.00;58812.66;5032409;28;8799;-68
2022/08/25 07:55:03;;;;;;;;;9.40;8.00;;;;;-147.14;100.00;58812.66;5021751;28;8827;-67
2022/08/25 07:57:29;;;;;;;;;7.50;7.50;;;;;-147.14;100.00;58812.66;5029817;28;8893;-69
2022/08/25 07:59:55;;;;;;;;;10.25;10.00;;;;;-147.14;100.00;58812.66;5028027;28;26198;-67
2022/08/25 08:02:20;;;;;;;;;7.33;7.33;;;;;-147.14;100.00;58812.66;5020916;28;9522;-68
2022/08/25 08:04:48;;;;;;;;;10.00;8.00;;;;;-147.14;100.00;58812.66;5026092;28;11559;-66
2022/08/25 08:07:18;;;;;;;;;7.25;7.25;;;;;-147.14;100.00;58812.66;5027712;28;8794;-69
2022/08/25 08:09:43;;;;;;;;;8.00;8.00;;;;;-147.14;100.00;58812.66;5022831;28;8821;-67
2022/08/25 08:12:09;;;;;;;;;4.00;4.00;;;;;-147.14;100.00;58812.66;5027047;28;8811;-66
2022/08/25 08:14:34;;;;;;;;;7.67;7.67;;;;;-147.14;100.00;58812.66;5025239;28;8873;-66
2022/08/25 08:17:04;;;;;;;;;4.00;3.00;;;;;-147.14;100.00;58812.66;5021800;28;29967;-66
2022/08/25 08:19:30;;;;;;;;;8.75;7.75;;;;;-147.14;100.00;58812.66;5030934;28;8819;-66
2022/08/25 08:21:55;;;;;;;;;6.00;6.00;;;;;-147.14;100.00;58812.66;5047852;28;8854;-67
2022/08/25 08:24:21;;;;;;;;;6.00;6.00;;;;;-147.14;100.00;58812.66;5029814;28;8882;-67
2022/08/25 08:26:46;;;;;;;;;9.33;7.33;;;;;-147.14;100.00;58812.66;5028175;28;8841;-67
2022/08/25 08:29:12;;;;;;;;;10.00;8.00;;;;;-147.14;100.00;58812.66;5025667;28;32551;-68
2022/08/25 08:31:37;;;;;;;;;10.67;10.67;;;;;-147.14;100.00;58812.66;5024735;28;9621;-66
2022/08/25 08:34:03;;;;;;;;;11.00;10.67;;;;;-147.14;100.00;58812.66;5027811;28;30954;-66
2022/08/25 08:36:28;;;;;;;;;10.33;8.33;;;;;-147.14;100.00;58812.66;5025520;28;8835;-66
2022/08/25 08:38:53;;;;;;;;;8.00;8.00;;;;;-147.14;100.00;58812.66;5031796;28;30662;-67
2022/08/25 08:44:41;;;;;;;;;10.25;9.00;;;;;-147.14;100.00;58812.66;5038167;28;8792;-67
2022/08/25 08:47:25;;;;;;;;;10.25;10.25;;;;;-147.14;100.00;58812.66;5029222;28;8829;-68
2022/08/25 08:50:09;;;;;;;;;5.40;5.40;;;;;-147.14;100.00;58812.66;5023305;28;8849;-68
2022/08/25 08:52:34;;;;;;;;;10.00;8.25;;;;;-147.14;100.00;58812.66;5024359;28;8796;-67
2022/08/25 08:55:02;;;;;;;;;8.33;8.33;;;;;-147.14;100.00;58812.66;5035086;28;8846;-67
2022/08/25 08:57:28;;;;;;;;;7.50;7.50;;;;;-147.14;100.00;58812.66;5031178;28;8807;-67
2022/08/25 08:59:58;;;;;;;;;5.00;5.00;;;;;-147.14;100.00;58812.66;5028879;28;35058;-67
2022/08/25 09:02:48;;;;;;;;;6.25;6.25;;;;;-147.14;100.00;58812.66;5035630;28;8853;-68
2022/08/25 09:05:15;;;;;;;;;4.75;4.75;;;;;-147.14;100.00;58812.66;5032954;28;8945;-68
2022/08/25 09:07:47;;;;;;;;;9.60;8.20;;;;;-147.14;100.00;58812.66;5026951;28;8827;-68
2022/08/25 09:10:13;;;;;;;;;9.75;8.50;;;;;-147.14;100.00;58812.66;5019020;28;8901;-68
2022/08/25 09:12:46;;;;;;;;;6.00;6.00;;;;;-147.14;100.00;58812.66;5026612;28;8864;-69
2022/08/25 09:15:23;;;;;;;;;7.50;7.50;;;;;-147.14;100.00;58812.66;5020813;28;8853;-68
2022/08/25 09:18:18;;;;;;;;;7.50;6.50;;;;;-147.14;100.00;58812.66;5026577;28;9735;-68
2022/08/25 09:21:08;;;;;;;;;7.25;7.25;;;;;-147.14;100.00;58812.66;5022326;28;8825;-68
2022/08/25 09:24:04;;;;;;;;;6.50;6.50;;;;;-147.14;100.00;58812.66;5021933;28;8806;-68
2022/08/25 09:26:46;;;;;;;;;6.00;6.00;;;;;-147.14;100.00;58812.66;5028142;28;8817;-68
2022/08/25 09:29:21;;;;;;;;;6.50;4.25;;;;;-147.14;100.00;58812.66;5029750;28;8767;-68
2022/08/25 09:31:47;;;;;;;;;6.00;6.00;;;;;-147.14;100.00;58812.66;5025550;28;8847;-68
2022/08/25 09:34:18;;;;;;;;;6.33;6.33;;;;;-147.14;100.00;58812.66;5024342;28;30694;-68
2022/08/25 09:36:45;;;;;;;;;4.75;4.75;;;;;-147.14;100.00;58812.66;5034827;28;9709;-67
2022/08/25 09:39:11;;;;;;;;;7.25;5.75;;;;;-147.14;100.00;58812.66;5028510;28;8834;-68
2022/08/25 09:41:52;;;;;;;;;7.00;7.00;;;;;-147.14;100.00;58812.66;5028847;28;25630;-67
2022/08/25 09:44:43;;;;;;;;;6.00;6.00;;;;;-147.14;100.00;58812.66;5023560;28;8900;-67
2022/08/25 09:47:17;;;;;;;;;5.00;5.00;;;;;-147.14;100.00;58812.66;5022971;28;8803;-67
2022/08/25 09:49:48;;;;;;;;;1.80;1.80;;;;;-147.14;100.00;58812.66;5024282;28;9003;-67
2022/08/25 09:52:33;;;;;;;;;3.25;3.25;;;;;-147.14;100.00;58812.66;5025287;28;8806;-67
2022/08/25 09:55:09;;;;;;;;;6.50;6.00;;;;;-147.14;100.00;58812.66;5031266;28;8842;-68
2022/08/25 09:57:36;;;;;;;;;4.25;4.25;;;;;-147.14;100.00;58812.66;5033666;28;8799;-67
2022/08/25 10:00:11;;;;;;;;;6.25;6.25;;;;;-147.14;100.00;58812.66;5032582;28;8804;-68
2022/08/25 10:02:37;;;;;;;;;5.50;5.50;;;;;-147.14;100.00;58812.66;5033090;28;8830;-68
2022/08/25 10:05:24;;;;;;;;;4.00;4.00;;;;;-147.14;100.00;58812.66;5033344;28;8827;-68
2022/08/25 10:07:54;;;;;;;;;3.25;3.25;;;;;-147.14;100.00;58812.66;5023281;28;8889;-68
2022/08/25 10:10:31;;;;;;;;;4.50;4.50;;;;;-147.14;100.00;58812.66;5024015;28;8775;-68
2022/08/25 10:12:59;;;;;;;;;6.50;4.50;;;;;-147.14;100.00;58812.66;5022052;28;8820;-68
2022/08/25 10:15:30;;;;;;;;;3.75;3.75;;;;;-147.14;100.00;58812.66;5032789;28;8914;-67
2022/08/25 10:18:20;;;;;;;;;3.00;3.00;;;;;-147.14;100.00;58812.66;5029260;28;8778;-67
2022/08/25 10:21:07;;;;;;;;;4.00;3.00;;;;;-147.14;100.00;58812.66;5021678;28;8840;-68
2022/08/25 10:23:35;;;;;;;;;6.25;5.00;;;;;-147.14;100.00;58812.66;5024137;28;8752;-67
2022/08/25 10:26:05;;;;;;;;;2.00;1.25;;;;;-147.14;100.00;58812.66;5026825;28;8752;-67
2022/08/25 10:28:46;;;;;;;;;6.25;5.75;;;;;-147.14;100.00;58812.66;5031325;28;8787;-66
2022/08/25 10:31:25;;;;;;;;;7.25;7.25;;;;;-147.14;100.00;58812.66;5024203;28;8847;-67
2022/08/25 10:33:54;;;;;;;;;5.00;5.00;;;;;-147.14;100.00;58812.66;5023651;28;8851;-67
2022/08/25 10:36:31;;;;;;;;;4.25;4.25;;;;;-147.14;100.00;58812.66;5026191;28;8834;-67
2022/08/25 10:38:58;;;;;;;;;6.00;6.00;;;;;-147.14;100.00;58812.66;5031402;28;8803;-67
2022/08/25 10:41:38;;;;;;;;;6.25;5.25;;;;;-147.14;100.00;58812.66;5019947;28;8821;-66
2022/08/25 10:47:31;;;;;;;;;7.00;7.00;;;;;-147.14;100.00;58812.66;5033169;28;8904;-67
2022/08/25 10:50:22;;;;;;;;;5.00;5.00;;;;;-147.14;100.00;58812.66;5030581;28;8792;-67
2022/08/25 10:53:22;;;;;;;;;4.00;3.50;;;;;-147.14;100.00;58812.66;5034082;28;9276;-66
2022/08/25 10:56:03;;;;;;;;;5.25;5.25;;;;;-147.14;100.00;58812.66;5024817;28;8827;-67
2022/08/25 10:58:49;;;;;;;;;6.25;6.25;;;;;-147.14;100.00;58812.66;5031135;28;8815;-67
2022/08/25 11:01:47;;;;;;;;;6.75;6.00;;;;;-147.14;100.00;58812.66;5029246;28;8862;-66
2022/08/25 11:04:21;;;;;;;;;5.25;5.25;;;;;-147.14;100.00;58812.66;5023687;28;8803;-67
2022/08/25 11:06:50;;;;;;;;;5.75;5.75;;;;;-147.14;100.00;58812.66;5022311;28;8794;-67
2022/08/25 11:09:20;;;;;;;;;5.00;5.00;;;;;-147.14;100.00;58812.66;5032016;28;8830;-67
2022/08/25 11:12:06;;;;;;;;;4.25;4.25;;;;;-147.14;100.00;58812.66;5025866;28;8921;-67
2022/08/25 11:14:42;;;;;;;;;5.75;5.75;;;;;-147.14;100.00;58812.66;5018532;28;8843;-66
2022/08/25 11:17:16;;;;;;;;;5.75;4.50;;;;;-147.14;100.00;58812.66;5018518;28;8827;-67
2022/08/25 11:19:48;;;;;;;;;6.50;6.50;;;;;-147.14;100.00;58812.66;5014512;28;8896;-67
2022/08/25 11:22:22;;;;;;;;;6.00;5.75;;;;;-147.14;100.00;58812.66;5016324;28;8812;-67
2022/08/25 11:24:47;;;;;;;;;4.75;4.75;;;;;-147.14;100.00;58812.66;5019429;28;8972;-67
2022/08/25 11:27:21;;;;;;;;;6.67;5.00;;;;;-147.14;100.00;58812.66;5029224;28;8916;-67
2022/08/25 11:29:55;;;;;;;;;3.00;3.00;;;;;-147.14;100.00;58812.66;5025891;28;8876;-67
2022/08/25 11:32:23;;;;;;;;;5.25;5.00;;;;;-147.14;100.00;58812.66;5028622;28;8804;-67
2022/08/25 11:34:49;;;;;;;;;6.25;4.50;;;;;-147.14;100.00;58812.66;5025637;28;8750;-66
2022/08/25 11:37:24;;;;;;;;;5.00;5.00;;;;;-147.14;100.00;58812.66;5021307;28;34497;-66
2022/08/25 11:40:12;;;;;;;;;5.25;4.75;;;;;-147.14;100.00;58812.66;5021350;28;11112;-66
2022/08/25 11:42:56;;;;;;;;;5.50;5.00;;;;;-147.14;100.00;58812.66;5024029;28;8922;-66
2022/08/25 11:45:42;;;;;;;;;6.25;6.25;;;;;-147.14;100.00;58812.66;5026673;28;8799;-66
2022/08/25 11:48:20;;;;;;;;;5.00;5.00;;;;;-147.14;100.00;58812.66;5021760;28;8826;-66
2022/08/25 11:51:10;;;;;;;;;8.25;7.75;;;;;-147.14;100.00;58812.66;5023819;28;8811;-66
2022/08/25 11:53:41;;;;;;;;;6.25;6.25;;;;;-147.14;100.00;58812.66;5026821;28;8805;-67
2022/08/25 11:56:31;;;;;;;;;5.00;5.00;;;;;-147.14;100.00;58812.66;5030460;28;8755;-66
2022/08/25 11:58:56;;;;;;;;;4.50;3.75;;;;;-147.14;100.00;58812.66;5024929;28;8827;-67
2022/08/25 12:01:31;;;;;;;;;2.00;2.00;;;;;-147.14;100.00;58812.66;5024152;28;33058;-66
2022/08/25 12:04:34;;;;;;;;;4.50;4.50;;;;;-147.14;100.00;58812.66;5027791;28;8811;-66
2022/08/25 12:07:05;;;;;;;;;4.00;4.00;;;;;-147.14;100.00;58812.66;5023465;28;8831;-65
2022/08/25 12:09:52;;;;;;;;;3.25;2.25;;;;;-147.14;100.00;58812.66;5022695;28;9782;-66
2022/08/25 12:12:37;;;;;;;;;4.00;4.00;;;;;-147.14;100.00;58812.66;5026790;28;8888;-67
2022/08/25 12:15:17;;;;;;;;;3.50;3.50;;;;;-147.14;100.00;58812.66;5024099;28;8967;-67
2022/08/25 12:17:42;;;;;;;;;5.00;5.00;;;;;-147.14;100.00;58812.66;5027117;28;8798;-68
2022/08/25 12:20:08;;;;;;;;;4.67;4.67;;;;;-147.14;100.00;58812.66;5024864;28;8834;-68
2022/08/25 12:22:33;;;;;;;;;5.00;5.00;;;;;-147.14;100.00;58812.66;5027213;28;8855;-68
2022/08/25 12:25:10;;;;;;;;;5.67;5.67;;;;;-147.14;100.00;58812.66;5028894;28;8916;-67
2022/08/25 12:27:35;;;;;;;;;4.00;4.00;;;;;-147.14;100.00;58812.66;5024775;28;8951;-68
2022/08/25 12:30:39;;;;;;;;;4.00;3.33;;;;;-147.14;100.00;58812.66;5023494;28;8823;-68
2022/08/25 12:33:14;;;;;;;;;6.00;6.00;;;;;-147.14;100.00;58812.66;5015982;28;8810;-68
2022/08/25 12:36:03;;;;;;;;;3.00;3.00;;;;;-147.14;100.00;58812.66;5027235;28;8853;-69
2022/08/25 12:38:30;;;;;;;;;1.75;1.75;;;;;-147.14;100.00;58812.66;5026407;28;8822;-69
2022/08/25 12:41:01;;;;;;;;;5.00;4.50;;;;;-147.14;100.00;58812.66;5019449;28;8955;-68
2022/08/25 12:43:35;;;;;;;;;6.25;6.25;;;;;-147.14;100.00;58812.66;5016262;28;8806;-68
2022/08/25 12:46:35;;;;;;;;;3.00;3.00;;;;;-147.14;100.00;58812.66;5020960;28;8845;-68
2022/08/25 12:49:33;;;;;;;;;3.75;3.50;;;;;-147.14;100.00;58812.66;5027303;28;8827;-68
2022/08/25 12:52:06;;;;;;;;;5.75;5.75;;;;;-147.14;100.00;58812.66;5024489;28;8816;-68
2022/08/25 12:54:57;;;;;;;;;4.50;4.50;;;;;-147.14;100.00;58812.66;5023266;28;8830;-69
2022/08/25 12:57:32;;;;;;;;;3.00;3.00;;;;;-147.14;100.00;58812.66;5024155;28;8790;-68
2022/08/25 13:00:00;;;;;;;;;5.50;5.50;;;;;-147.14;100.00;58812.66;5024830;28;8903;-68
2022/08/25 13:03:06;;;;;;;;;3.75;3.25;;;;;-147.14;100.00;58812.66;5028358;28;8798;-68
2022/08/25 13:05:59;;;;;;;;;1.25;1.25;;;;;-147.14;100.00;58812.66;5012727;28;8928;-68
2022/08/25 13:08:40;;;;;;;;;4.50;4.50;;;;;-147.14;100.00;58812.66;5030391;28;8771;-68
2022/08/25 13:11:16;;;;;;;;;4.25;4.25;;;;;-147.14;100.00;58812.66;5016367;28;8835;-68
2022/08/25 13:14:00;;;;;;;;;2.50;2.50;;;;;-147.14;100.00;58812.66;5018027;28;8920;-68
2022/08/25 13:16:27;;;;;;;;;5.00;5.00;;;;;-147.14;100.00;58812.66;5014459;28;8822;-67
2022/08/25 13:18:57;;;;;;;;;3.00;3.00;;;;;-147.14;100.00;58812.66;5028276;28;8894;-68
2022/08/25 13:21:35;;;;;;;;;7.00;5.75;;;;;-147.14;100.00;58812.66;5034449;28;8803;-67
2022/08/25 13:24:03;;;;;;;;;4.00;4.00;;;;;-147.14;100.00;58812.66;5033820;28;8869;-69
2022/08/25 13:26:31;;;;;;;;;4.25;4.25;;;;;-147.14;100.00;58812.66;5019549;28;8815;-68
2022/08/25 13:29:11;;;;;;;;;4.25;4.25;;;;;-147.14;100.00;58812.66;5033099;28;8821;-67
2022/08/25 13:31:58;;;;;;;;;4.50;4.50;;;;;-147.14;100.00;58812.66;5026213;28;8841;-68
2022/08/25 13:34:27;;;;;;;;;4.25;4.00;;;;;-147.14;100.00;58812.66;5048009;28;8933;-68
2022/08/25 13:39:38;;;;;;;;;3.25;3.25;;;;;-147.14;100.00;58812.66;5024635;28;8802;-67
2022/08/25 13:42:06;;;;;;;;;6.00;5.00;;;;;-147.14;100.00;58812.66;5020390;28;8822;-69
2022/08/25 13:44:35;;;;;;;;;4.75;4.75;;;;;-147.14;100.00;58812.66;5019171;28;8914;-67
2022/08/25 13:47:16;;;;;;;;;4.00;4.00;;;;;-147.14;100.00;58812.66;5023933;28;8814;-68
2022/08/25 13:49:44;;;;;;;;;3.25;3.25;;;;;-147.14;100.00;58812.66;5020008;28;8791;-68
2022/08/25 13:52:25;;;;;;;;;6.00;5.00;;;;;-147.14;100.00;58812.66;5016752;28;8790;-68
2022/08/25 13:54:51;;;;;;;;;3.00;3.00;;;;;-147.14;100.00;58812.66;5020817;28;8875;-69
2022/08/25 13:57:21;;;;;;;;;3.00;3.00;;;;;-147.14;100.00;58812.66;5024537;28;17136;-67
2022/08/25 13:59:50;;;;;;;;;4.50;4.50;;;;;-147.14;100.00;58812.66;5030096;28;9685;-69
2022/08/25 14:02:48;;;;;;;;;3.00;3.00;;;;;-147.14;100.00;58812.66;5030523;28;10071;-67
2022/08/25 14:05:28;;;;;;;;;3.25;3.00;;;;;-147.14;100.00;58812.66;5022528;28;8852;-69
2022/08/25 14:07:55;;;;;;;;;3.75;3.75;;;;;-147.14;100.00;58812.66;5027874;28;9701;-70
2022/08/25 14:10:41;;;;;;;;;3.75;3.75;;;;;-147.14;100.00;58812.66;5026223;28;8836;-68
2022/08/25 14:13:31;;;;;;;;;4.25;4.25;;;;;-147.14;100.00;58812.66;5020469;28;8908;-68
2022/08/25 14:16:07;;;;;;;;;4.40;3.00;;;;;-147.14;100.00;58812.66;5021951;28;8956;-69
2022/08/25 14:18:32;;;;;;;;;3.25;3.25;;;;;-147.14;100.00;58812.66;5028024;28;8837;-69
2022/08/25 14:21:00;;;;;;;;;3.33;3.33;;;;;-147.14;100.00;58812.66;5039802;28;15239;-69
2022/08/25 14:23:28;;;;;;;;;1.60;1.60;;;;;-147.14;100.00;58812.66;5024862;28;10227;-69
2022/08/25 14:25:55;;;;;;;;;0.00;0.00;;;;;-147.14;100.00;58812.66;5013820;28;8911;-69
2022/08/25 14:28:28;;;;;;;;;3.25;1.25;;;;;-147.14;100.00;58812.66;5028070;28;8829;-67
2022/08/25 14:30:55;;;;;;;;;1.20;1.20;;;;;-147.14;100.00;58812.66;5027416;28;8814;-68
2022/08/25 14:33:24;;;;;;;;;2.00;2.00;;;;;-147.14;100.00;58812.66;5021358;28;8833;-69
2022/08/25 14:35:51;;;;;;;;;2.50;2.50;;;;;-147.14;100.00;58812.66;5022060;28;8827;-68
2022/08/25 14:38:18;;;;;;;;;2.20;2.20;;;;;-147.14;100.00;58812.66;5021680;28;8783;-68
2022/08/25 14:40:44;;;;;;;;;1.00;1.00;;;;;-147.14;100.00;58812.66;5019916;28;8805;-68
2022/08/25 14:43:09;;;;;;;;;3.00;3.00;;;;;-147.14;100.00;58812.66;5023380;28;8863;-68
2022/08/25 14:45:37;;;;;;;;;2.33;2.33;;;;;-147.14;100.00;58812.66;5036800;28;8841;-66
2022/08/25 14:48:06;;;;;;;;;1.25;1.25;;;;;-147.14;100.00;58812.66;5038055;28;8867;-67
2022/08/25 14:50:32;;;;;;;;;2.20;2.20;;;;;-147.14;100.00;58812.66;5028418;28;8809;-67
2022/08/25 14:52:58;;;;;;;;;1.00;1.00;;;;;-147.14;100.00;58812.66;5033842;28;8831;-67
2022/08/25 14:55:24;;;;;;;;;1.20;1.20;;;;;-147.14;100.00;58812.66;5041670;28;8826;-67
2022/08/25 14:57:49;;;;;;;;;2.00;2.00;;;;;-147.14;100.00;58812.66;5031196;28;19090;-67
2022/08/25 15:00:14;;;;;;;;;2.00;2.00;;;;;-147.14;100.00;58812.66;5031958;28;28711;-67
2022/08/25 15:02:41;;;;;;;;;1.00;1.00;;;;;-147.14;100.00;58812.66;5031585;28;8948;-67
2022/08/25 15:05:10;;;;;;;;;1.25;1.25;;;;;-147.14;100.00;58812.66;5017975;28;8814;-67
2022/08/25 15:10:20;;;;;;;;;0.80;0.80;;;;;-147.14;100.00;58812.66;5022839;28;8901;-68
2022/08/25 15:12:46;;;;;;;;;2.00;2.00;;;;;-147.14;100.00;58812.66;5024979;28;8865;-67
2022/08/25 15:15:11;;;;;;;;;3.33;1.00;;;;;-147.14;100.00;58812.66;5026495;28;8874;-68
2022/08/25 15:17:38;;;;;;;;;2.00;2.00;;;;;-147.14;100.00;58812.66;5032821;28;15517;-66
2022/08/25 15:20:04;;;;;;;;;0.60;0.60;;;;;-147.14;100.00;58812.66;5025884;28;8782;-67
2022/08/25 15:22:29;;;;;;;;;2.00;1.67;;;;;-147.14;100.00;58812.66;5024518;28;8819;-67
2022/08/25 15:24:54;;;;;;;;;3.67;2.00;;;;;-147.14;100.00;58812.66;5027761;28;8839;-67
2022/08/25 15:27:20;;;;;;;;;2.33;2.33;;;;;-147.14;100.00;58812.66;5029137;28;10532;-66
2022/08/25 15:29:46;;;;;;;;;3.00;3.00;;;;;-147.14;100.00;58812.66;5024557;28;36292;-66
2022/08/25 15:32:11;;;;;;;;;0.75;0.75;;;;;-147.14;100.00;58812.66;5018815;28;27071;-66
2022/08/25 15:34:37;;;;;;;;;3.33;3.00;;;;;-147.14;100.00;58812.66;5025517;28;8824;-66
2022/08/25 15:37:12;;;;;;;;;1.40;1.40;;;;;-147.14;100.00;58812.66;5028832;28;8799;-68
2022/08/25 15:39:39;;;;;;;;;2.75;2.75;;;;;-147.14;100.00;58812.66;5024979;28;8793;-67
2022/08/25 15:42:05;;;;;;;;;1.50;1.50;;;;;-147.14;100.00;58812.66;5027129;28;8788;-67
2022/08/25 15:44:31;;;;;;;;;1.00;1.00;;;;;-147.14;100.00;58812.66;5024635;28;8919;-66
2022/08/25 15:46:58;;;;;;;;;1.25;1.25;;;;;-147.14;100.00;58812.66;5025711;28;8792;-67
2022/08/25 15:49:24;;;;;;;;;0.00;0.00;;;;;-147.14;100.00;58812.66;5022156;28;8806;-67
2022/08/25 15:51:51;;;;;;;;;3.00;3.00;;;;;-147.14;100.00;58812.66;5034518;28;8815;-69
2022/08/25 15:54:16;;;;;;;;;2.20;1.20;;;;;-147.14;100.00;58812.66;5035242;28;8811;-67
2022/08/25 15:56:42;;;;;;;;;4.75;2.75;;;;;-147.14;100.00;58812.66;5020390;28;8799;-67
2022/08/25 15:59:08;;;;;;;;;1.40;1.40;;;;;-147.14;100.00;58812.66;5015114;28;8813;-67
2022/08/25 16:01:33;;;;;;;;;1.00;1.00;;;;;-147.14;100.00;58812.66;5035401;28;8970;-67
2022/08/25 16:03:59;;;;;;;;;1.00;1.00;;;;;-147.14;100.00;58812.66;5028621;28;8862;-66
2022/08/25 16:06:25;;;;;;;;;2.67;2.00;;;;;-147.14;100.00;58812.66;5026030;28;8843;-66
2022/08/25 16:08:50;;;;;;;;;0.20;0.20;;;;;-147.14;100.00;58812.66;5023275;28;8806;-67
2022/08/25 16:11:23;;;;;;;;;2.50;2.50;;;;;-147.14;100.00;58812.66;5024752;28;8822;-66
2022/08/25 16:13:49;;;;;;;;;2.00;1.80;;;;;-147.14;100.00;58812.66;5020272;28;8806;-66
2022/08/25 16:16:15;;;;;;;;;0.80;0.80;;;;;-147.14;100.00;58812.66;5033043;28;8772;-66